Fresnal Canyon, Arizona
Current Conditions -  °F | °C
As of 8:45 AM on Friday 21 Nov 2014 (Local Time) from KRYN Reporting Station
Clear Clear  
Wind Chill: 52°   Ceiling: Unl
Heat Index: 52°   Visibility: 10mi
Dew Point: 27°   Wind: 7mph
Humidity: 38%   Direction: 90°E
Pressure: 29.96"   Gusts: NA
Location:  32.0925°N, 112.129°W
Report Text: KRYN 211545Z 09006KT 10SM CLR 11/M03 A2996
Loading
Personal Weather Stations






























Interactive Weather Map New forecast layout! Learn more

10-Day Weather Forecast

Advertisements
Track Severe Weather on mobile